Main page
METAR-TAF:

METAR-TAF

Airports :

Rasht, Iran

Rasht Airport

latitude: 37-12N, longitude: 049-38E, elevation: -7 m

Current weather observation

The report was made 17 minutes ago, at 17:00 UTC
Calm wind
Temperature 22°C
Humidity 83%
Pressure 1013 hPa
Visibility 10 km or more
Few clouds at a height of 3000 ft

METAR: OIGG 231700Z 00000KT 9999 FEW030 22/19 Q1013

Time: 21:47 (17:17 UTC)


TAF: missing

Weather observations and forecasts of more than 4000 airports (METAR and TAF reports).

The available stations are represented by yellow and red dots on the map.

Hover mouse over dot to see the name of the station.

Then click to see weather observations and forecasts.

To change the map : click on the green buttons with a black cross to zoom in, on the green button with a dash to zoom out, or on the green arrows for adjacent maps.


METAR-TAF: